createdAt,value
2023-01-29T00:02:24.630Z,6.20
2023-01-29T00:04:52.068Z,5.40
2023-01-29T00:07:20.007Z,6.10
2023-01-29T00:09:47.987Z,5.40
2023-01-29T00:12:15.592Z,6.37
2023-01-29T00:14:42.979Z,5.90
2023-01-29T00:17:10.688Z,5.90
2023-01-29T00:19:40.209Z,5.90
2023-01-29T00:22:07.617Z,6.53
2023-01-29T00:24:35.370Z,5.90
2023-01-29T00:27:03.056Z,5.77
2023-01-29T00:29:30.696Z,6.20
2023-01-29T00:31:59.399Z,5.67
2023-01-29T00:34:26.841Z,6.27
2023-01-29T00:37:04.815Z,5.40
2023-01-29T00:39:47.339Z,5.77
2023-01-29T00:42:34.171Z,5.20
2023-01-29T00:45:01.836Z,7.40
2023-01-29T00:47:33.844Z,6.60
2023-01-29T00:50:03.564Z,6.20
2023-01-29T00:52:31.112Z,6.00
2023-01-29T00:55:00.441Z,5.50
2023-01-29T00:57:30.741Z,6.10
2023-01-29T00:59:58.760Z,5.87
2023-01-29T01:02:45.552Z,5.40
2023-01-29T01:05:19.168Z,5.43
2023-01-29T01:07:49.742Z,5.40
2023-01-29T01:10:32.541Z,5.93
2023-01-29T01:13:05.324Z,5.43
2023-01-29T01:15:40.563Z,5.43
2023-01-29T01:18:09.303Z,6.10
2023-01-29T01:20:37.416Z,5.87
2023-01-29T01:23:04.876Z,5.43
2023-01-29T01:25:32.638Z,6.10
2023-01-29T01:28:03.326Z,6.33
2023-01-29T01:30:30.832Z,5.83
2023-01-29T01:33:01.088Z,5.87
2023-01-29T01:35:28.492Z,6.10
2023-01-29T01:37:55.739Z,7.10
2023-01-29T01:40:25.021Z,6.80
2023-01-29T01:42:57.963Z,6.17
2023-01-29T01:45:30.602Z,6.20
2023-01-29T01:48:37.424Z,6.33
2023-01-29T01:51:06.827Z,5.27
2023-01-29T01:53:44.942Z,6.87
2023-01-29T01:56:18.829Z,5.90
2023-01-29T01:58:59.942Z,6.80
2023-01-29T02:01:29.479Z,6.60
2023-01-29T02:04:27.727Z,6.13
2023-01-29T02:07:17.441Z,6.20
2023-01-29T02:10:05.909Z,7.03
2023-01-29T02:12:34.422Z,6.50
2023-01-29T02:15:02.495Z,6.47
2023-01-29T02:17:30.003Z,7.10
2023-01-29T02:20:08.482Z,6.53
2023-01-29T02:22:59.319Z,7.07
2023-01-29T02:25:30.036Z,7.17
2023-01-29T02:28:17.364Z,7.23
2023-01-29T02:31:11.472Z,7.00
2023-01-29T02:34:16.820Z,7.07
2023-01-29T02:37:09.433Z,7.17
2023-01-29T02:40:00.751Z,7.50
2023-01-29T02:42:40.721Z,7.40
2023-01-29T02:45:18.290Z,7.33
2023-01-29T02:47:48.877Z,7.17
2023-01-29T02:50:35.358Z,7.17
2023-01-29T02:53:12.185Z,6.87
2023-01-29T02:55:53.889Z,6.90
2023-01-29T02:58:30.712Z,6.57
2023-01-29T03:01:13.565Z,6.63
2023-01-29T03:03:45.731Z,7.10
2023-01-29T03:06:37.472Z,6.97
2023-01-29T03:09:09.845Z,5.63
2023-01-29T03:11:47.992Z,7.43
2023-01-29T03:14:24.886Z,5.97
2023-01-29T03:16:53.955Z,6.17
2023-01-29T03:19:36.452Z,6.67
2023-01-29T03:22:11.214Z,6.33
2023-01-29T03:25:03.390Z,6.20
2023-01-29T03:27:57.456Z,5.37
2023-01-29T03:30:48.661Z,5.50
2023-01-29T03:33:33.452Z,6.03
2023-01-29T03:36:14.764Z,5.80
2023-01-29T03:38:43.279Z,5.60
2023-01-29T03:41:22.440Z,6.43
2023-01-29T03:44:14.653Z,5.90
2023-01-29T03:46:54.264Z,5.40
2023-01-29T03:49:54.905Z,5.70
2023-01-29T03:52:30.815Z,5.60
2023-01-29T03:55:01.600Z,5.60
2023-01-29T03:57:35.805Z,5.40
2023-01-29T04:00:11.952Z,5.80
2023-01-29T04:03:21.383Z,5.73
2023-01-29T04:06:10.084Z,6.43
2023-01-29T04:09:25.098Z,5.80
2023-01-29T04:12:10.449Z,5.87
2023-01-29T04:14:41.461Z,6.17
2023-01-29T04:17:22.084Z,5.60
2023-01-29T04:19:56.129Z,6.40
2023-01-29T04:22:31.408Z,6.27
2023-01-29T04:25:02.863Z,6.23
2023-01-29T04:27:57.612Z,6.00
2023-01-29T04:30:53.048Z,5.87
2023-01-29T04:33:35.133Z,6.03
2023-01-29T04:36:21.161Z,5.83
2023-01-29T04:39:18.284Z,6.13
2023-01-29T04:41:59.793Z,5.80
2023-01-29T04:44:58.463Z,5.77
2023-01-29T04:47:47.749Z,6.50
2023-01-29T04:50:26.858Z,6.40
2023-01-29T04:53:16.185Z,6.33
2023-01-29T04:56:02.770Z,6.23
2023-01-29T04:58:42.495Z,6.60
2023-01-29T05:01:16.436Z,6.93
2023-01-29T05:03:50.043Z,6.87
2023-01-29T05:06:19.229Z,7.20
2023-01-29T05:08:49.065Z,7.13
2023-01-29T05:11:18.395Z,6.87
2023-01-29T05:13:49.249Z,6.63
2023-01-29T05:16:42.400Z,6.40
2023-01-29T05:19:13.701Z,6.80
2023-01-29T05:21:44.405Z,6.50
2023-01-29T05:24:19.562Z,6.57
2023-01-29T05:27:08.338Z,5.77
2023-01-29T05:29:35.860Z,4.47
2023-01-29T05:32:04.119Z,5.10
2023-01-29T05:34:31.417Z,4.80
2023-01-29T05:36:58.667Z,4.60
2023-01-29T05:39:26.207Z,5.10
2023-01-29T05:41:53.471Z,4.63
2023-01-29T05:44:21.125Z,5.10
2023-01-29T05:46:48.641Z,5.10
2023-01-29T05:49:18.087Z,4.77
2023-01-29T05:51:45.372Z,5.00
2023-01-29T05:54:13.595Z,5.30
2023-01-29T05:56:41.113Z,5.63
2023-01-29T05:59:09.294Z,5.27
2023-01-29T06:01:37.034Z,5.40
2023-01-29T06:04:04.574Z,5.60
2023-01-29T06:06:32.009Z,5.70
2023-01-29T06:09:00.480Z,5.13
2023-01-29T06:11:27.964Z,5.90
2023-01-29T06:13:55.847Z,6.10
2023-01-29T06:16:23.249Z,5.97
2023-01-29T06:18:52.072Z,6.33
2023-01-29T06:21:20.184Z,6.63
2023-01-29T06:23:47.719Z,6.77
2023-01-29T06:26:16.374Z,6.13
2023-01-29T06:28:45.893Z,6.53
2023-01-29T06:31:36.294Z,6.03
2023-01-29T06:34:00.495Z,6.33
2023-01-29T06:36:28.265Z,5.83
2023-01-29T06:38:55.606Z,6.03
2023-01-29T06:41:25.666Z,6.10
2023-01-29T06:43:53.441Z,6.47
2023-01-29T06:46:21.289Z,6.20
2023-01-29T06:48:48.790Z,5.80
2023-01-29T06:51:16.187Z,5.90
2023-01-29T06:53:46.051Z,5.40
2023-01-29T06:56:14.322Z,5.40
2023-01-29T06:58:43.469Z,5.97
2023-01-29T07:01:22.172Z,5.70
2023-01-29T07:03:56.635Z,5.57
2023-01-29T07:06:28.854Z,5.30
2023-01-29T07:08:56.815Z,5.27
2023-01-29T07:11:24.287Z,4.73
2023-01-29T07:13:52.653Z,4.77
2023-01-29T07:16:20.591Z,5.07
2023-01-29T07:18:48.003Z,5.43
2023-01-29T07:21:15.642Z,5.10
2023-01-29T07:23:42.920Z,5.63
2023-01-29T07:26:10.694Z,5.63
2023-01-29T07:28:38.772Z,4.90
2023-01-29T07:31:07.115Z,4.77
2023-01-29T07:33:35.199Z,5.10
2023-01-29T07:36:02.600Z,5.10
2023-01-29T07:38:30.019Z,4.80
2023-01-29T07:40:57.627Z,4.60
2023-01-29T07:43:25.128Z,4.93
2023-01-29T07:45:52.798Z,4.77
2023-01-29T07:48:20.345Z,4.80
2023-01-29T07:50:55.566Z,4.20
2023-01-29T07:53:23.466Z,4.63
2023-01-29T07:55:51.152Z,5.13
2023-01-29T07:58:18.464Z,5.17
2023-01-29T08:00:46.308Z,5.40
2023-01-29T08:03:19.965Z,4.67
2023-01-29T08:05:47.555Z,4.63
2023-01-29T08:08:15.579Z,5.03
2023-01-29T08:10:43.159Z,5.00
2023-01-29T08:13:10.888Z,4.90
2023-01-29T08:15:39.385Z,5.23
2023-01-29T08:18:07.231Z,4.93
2023-01-29T08:20:34.876Z,5.13
2023-01-29T08:23:04.476Z,4.63
2023-01-29T08:25:32.409Z,4.93
2023-01-29T08:28:00.967Z,4.57
2023-01-29T08:30:32.771Z,4.30
2023-01-29T08:33:00.454Z,4.93
2023-01-29T08:35:28.053Z,5.67
2023-01-29T08:38:00.621Z,22.10
2023-01-29T08:40:30.655Z,8.60
2023-01-29T08:43:02.101Z,4.77
2023-01-29T08:45:32.030Z,5.63
2023-01-29T08:47:59.521Z,5.43
2023-01-29T08:50:26.832Z,6.33
2023-01-29T08:52:59.286Z,6.50
2023-01-29T08:55:27.095Z,7.37
2023-01-29T08:57:54.696Z,5.93
2023-01-29T09:00:22.324Z,6.60
2023-01-29T09:02:49.924Z,7.03
2023-01-29T09:05:17.904Z,4.97
2023-01-29T09:07:45.447Z,6.60
2023-01-29T09:10:13.530Z,5.27
2023-01-29T09:12:41.025Z,5.60
2023-01-29T09:15:08.902Z,5.23
2023-01-29T09:17:36.267Z,5.30
2023-01-29T09:20:06.208Z,5.27
2023-01-29T09:22:33.839Z,5.23
2023-01-29T09:25:01.497Z,5.20
2023-01-29T09:27:29.057Z,5.40
2023-01-29T09:29:56.332Z,5.93
2023-01-29T09:32:51.688Z,5.50
2023-01-29T09:35:11.005Z,5.30
2023-01-29T09:37:38.285Z,5.40
2023-01-29T09:40:06.737Z,5.33
2023-01-29T09:42:49.480Z,5.30
2023-01-29T09:45:24.728Z,5.70
2023-01-29T09:47:53.576Z,4.97
2023-01-29T09:50:37.495Z,5.40
2023-01-29T09:53:07.624Z,5.83
2023-01-29T09:55:46.447Z,5.70
2023-01-29T09:58:33.426Z,6.60
2023-01-29T10:01:58.330Z,6.20
2023-01-29T10:04:45.616Z,6.47
2023-01-29T10:07:19.006Z,6.20
2023-01-29T10:10:00.353Z,6.53
2023-01-29T10:12:54.838Z,6.13
2023-01-29T10:15:46.008Z,5.93
2023-01-29T10:18:42.556Z,6.07
2023-01-29T10:21:28.653Z,6.07
2023-01-29T10:24:12.144Z,6.47
2023-01-29T10:26:40.942Z,5.73
2023-01-29T10:29:13.686Z,6.30
2023-01-29T10:31:41.480Z,6.30
2023-01-29T10:34:23.968Z,6.80
2023-01-29T10:36:51.431Z,7.20
2023-01-29T10:39:24.607Z,7.03
2023-01-29T10:42:10.427Z,6.63
2023-01-29T10:45:00.886Z,6.37
2023-01-29T10:48:05.227Z,6.60
2023-01-29T10:51:29.943Z,7.30
2023-01-29T10:54:35.671Z,6.97
2023-01-29T10:57:23.175Z,6.87
2023-01-29T11:00:13.665Z,6.90
2023-01-29T11:02:46.389Z,7.47
2023-01-29T11:05:41.443Z,6.87
2023-01-29T11:08:13.501Z,7.50
2023-01-29T11:11:06.589Z,6.97
2023-01-29T11:13:40.059Z,6.80
2023-01-29T11:16:09.777Z,7.77
2023-01-29T11:19:00.363Z,7.70
2023-01-29T11:21:29.968Z,7.57
2023-01-29T11:24:17.441Z,7.47
2023-01-29T11:26:48.835Z,7.03
2023-01-29T11:29:38.269Z,7.23
2023-01-29T11:32:13.179Z,7.03
2023-01-29T11:35:04.058Z,7.20
2023-01-29T11:37:37.426Z,6.93
2023-01-29T11:40:32.933Z,6.60
2023-01-29T11:43:19.990Z,7.50
2023-01-29T11:45:50.116Z,7.60
2023-01-29T11:48:21.059Z,7.80
2023-01-29T11:50:57.276Z,7.50
2023-01-29T11:53:33.805Z,7.17
2023-01-29T11:56:03.750Z,8.10
2023-01-29T11:58:34.783Z,7.83
2023-01-29T12:01:02.980Z,7.50
2023-01-29T12:03:53.292Z,8.17
2023-01-29T12:06:24.287Z,8.07
2023-01-29T12:09:01.023Z,8.27
2023-01-29T12:11:34.205Z,8.00
2023-01-29T12:14:21.999Z,7.67
2023-01-29T12:17:01.910Z,8.40
2023-01-29T12:19:39.304Z,7.93
2023-01-29T12:22:10.197Z,8.57
2023-01-29T12:24:49.159Z,8.33
2023-01-29T12:27:22.563Z,8.60
2023-01-29T12:30:12.245Z,8.60
2023-01-29T12:33:06.908Z,8.83
2023-01-29T12:35:59.991Z,8.07
2023-01-29T12:38:27.416Z,8.83
2023-01-29T12:41:24.109Z,8.70
2023-01-29T12:44:06.244Z,9.60
2023-01-29T12:46:50.919Z,9.00
2023-01-29T12:49:24.446Z,9.07
2023-01-29T12:52:02.940Z,9.23
2023-01-29T12:54:50.432Z,9.20
2023-01-29T12:57:26.220Z,9.10
2023-01-29T13:00:02.633Z,10.17
2023-01-29T13:03:18.735Z,9.87
2023-01-29T13:05:50.483Z,8.80
2023-01-29T13:08:20.747Z,9.63
2023-01-29T13:10:54.378Z,9.27
2023-01-29T13:13:36.497Z,10.23
2023-01-29T13:16:12.943Z,9.73
2023-01-29T13:18:59.083Z,8.90
2023-01-29T13:21:39.579Z,10.03
2023-01-29T13:24:20.570Z,9.57
2023-01-29T13:26:49.459Z,11.10
2023-01-29T13:29:29.712Z,9.87
2023-01-29T13:32:00.539Z,9.90
2023-01-29T13:34:37.795Z,9.90
2023-01-29T13:37:12.820Z,9.33
2023-01-29T13:39:48.906Z,9.10
2023-01-29T13:42:47.169Z,9.50
2023-01-29T13:45:27.368Z,9.83
2023-01-29T13:48:09.910Z,10.60
2023-01-29T13:50:41.360Z,10.07
2023-01-29T13:53:21.462Z,9.87
2023-01-29T13:55:48.846Z,9.40
2023-01-29T13:58:31.376Z,9.43
2023-01-29T14:01:01.151Z,10.77
2023-01-29T14:03:32.190Z,9.93
2023-01-29T14:06:03.604Z,10.47
2023-01-29T14:08:44.625Z,10.50
2023-01-29T14:11:34.525Z,9.83
2023-01-29T14:14:02.238Z,9.83
2023-01-29T14:16:35.669Z,10.93
2023-01-29T14:19:05.431Z,10.47
2023-01-29T14:21:36.765Z,10.57
2023-01-29T14:24:21.099Z,11.07
2023-01-29T14:26:54.217Z,10.20
2023-01-29T14:29:35.092Z,10.30
2023-01-29T14:32:19.347Z,11.43
2023-01-29T14:35:01.402Z,10.70
2023-01-29T14:37:36.637Z,10.13
2023-01-29T14:40:19.492Z,10.40
2023-01-29T14:42:57.422Z,10.10
2023-01-29T14:45:29.198Z,10.57
2023-01-29T14:48:02.866Z,10.90
2023-01-29T14:50:31.936Z,9.87
2023-01-29T14:53:07.080Z,10.80
2023-01-29T14:55:48.486Z,10.70
2023-01-29T14:58:26.131Z,11.00
2023-01-29T15:00:56.138Z,11.27
2023-01-29T15:03:46.055Z,10.70
2023-01-29T15:06:22.660Z,10.57
2023-01-29T15:09:02.756Z,10.90
2023-01-29T15:11:40.687Z,11.50
2023-01-29T15:14:24.213Z,10.87
2023-01-29T15:17:13.792Z,11.07
2023-01-29T15:19:48.649Z,11.50
2023-01-29T15:22:17.726Z,10.73
2023-01-29T15:24:47.065Z,11.20
2023-01-29T15:27:17.531Z,11.30
2023-01-29T15:29:56.745Z,11.57
2023-01-29T15:32:42.904Z,11.10
2023-01-29T15:35:30.071Z,12.07
2023-01-29T15:38:15.985Z,11.17
2023-01-29T15:40:56.908Z,11.23
2023-01-29T15:43:36.482Z,11.87
2023-01-29T15:46:10.749Z,12.63
2023-01-29T15:48:41.683Z,11.87
2023-01-29T15:51:15.440Z,12.00
2023-01-29T15:54:04.305Z,12.40
2023-01-29T15:57:00.005Z,13.17
2023-01-29T15:59:35.235Z,11.40
2023-01-29T16:02:37.992Z,11.30
2023-01-29T16:05:15.533Z,10.50
2023-01-29T16:07:44.324Z,11.27
2023-01-29T16:10:18.564Z,10.10
2023-01-29T16:12:51.604Z,11.00
2023-01-29T16:15:33.035Z,10.47
2023-01-29T16:18:02.655Z,10.37
2023-01-29T16:20:37.677Z,11.23
2023-01-29T16:23:06.890Z,10.90
2023-01-29T16:25:37.621Z,10.33
2023-01-29T16:28:07.504Z,11.40
2023-01-29T16:30:35.320Z,10.30
2023-01-29T16:33:08.415Z,11.03
2023-01-29T16:35:36.225Z,10.27
2023-01-29T16:38:08.191Z,10.53
2023-01-29T16:40:38.278Z,10.50
2023-01-29T16:43:18.195Z,10.77
2023-01-29T16:46:06.000Z,10.30
2023-01-29T16:48:35.345Z,12.03
2023-01-29T16:51:06.520Z,11.27
2023-01-29T16:53:35.927Z,11.47
2023-01-29T16:56:07.506Z,10.50
2023-01-29T16:58:35.419Z,10.67
2023-01-29T17:01:08.634Z,10.97
2023-01-29T17:03:37.361Z,10.23
2023-01-29T17:06:21.631Z,9.63
2023-01-29T17:08:49.316Z,10.50
2023-01-29T17:11:27.831Z,10.33
2023-01-29T17:13:57.422Z,9.50
2023-01-29T17:16:37.627Z,9.97
2023-01-29T17:19:18.416Z,9.43
2023-01-29T17:21:46.580Z,10.77
2023-01-29T17:24:13.873Z,10.60
2023-01-29T17:26:41.691Z,10.37
2023-01-29T17:29:20.165Z,11.47
2023-01-29T17:31:47.751Z,17.20
2023-01-29T17:34:16.770Z,16.10
2023-01-29T17:36:44.626Z,14.47
2023-01-29T17:39:23.693Z,13.00
2023-01-29T17:41:56.455Z,14.10
2023-01-29T17:44:26.192Z,14.00
2023-01-29T17:46:53.703Z,14.60
2023-01-29T17:49:34.215Z,16.10
2023-01-29T17:52:01.883Z,18.97
2023-01-29T17:54:29.548Z,15.30
2023-01-29T17:56:58.069Z,14.87
2023-01-29T17:59:31.145Z,14.53
2023-01-29T18:01:59.347Z,12.90
2023-01-29T18:04:26.853Z,12.67
2023-01-29T18:06:56.679Z,12.63
2023-01-29T18:09:25.020Z,15.87
2023-01-29T18:11:53.398Z,14.17
2023-01-29T18:14:21.043Z,13.30
2023-01-29T18:16:48.759Z,14.43
2023-01-29T18:19:22.288Z,15.63
2023-01-29T18:21:50.855Z,14.53
2023-01-29T18:24:20.474Z,23.53
2023-01-29T18:26:49.341Z,33.70
2023-01-29T18:29:16.819Z,30.40
2023-01-29T18:31:44.850Z,29.83
2023-01-29T18:34:12.299Z,22.10
2023-01-29T18:36:39.748Z,18.73
2023-01-29T18:39:07.430Z,18.43
2023-01-29T18:41:34.744Z,17.00
2023-01-29T18:44:02.250Z,17.97
2023-01-29T18:46:29.582Z,15.73
2023-01-29T18:48:56.867Z,15.77
2023-01-29T18:51:24.369Z,15.13
2023-01-29T18:53:52.613Z,16.97
2023-01-29T18:56:20.419Z,14.40
2023-01-29T18:58:52.167Z,12.80
2023-01-29T19:01:23.697Z,11.57
2023-01-29T19:03:51.369Z,12.97
2023-01-29T19:06:18.789Z,13.60
2023-01-29T19:08:47.676Z,13.53
2023-01-29T19:11:15.211Z,13.57
2023-01-29T19:13:43.029Z,15.53
2023-01-29T19:16:12.138Z,14.23
2023-01-29T19:18:39.860Z,14.13
2023-01-29T19:21:13.171Z,14.23
2023-01-29T19:23:42.334Z,15.93
2023-01-29T19:26:10.530Z,15.27
2023-01-29T19:28:38.032Z,15.43
2023-01-29T19:31:05.452Z,20.33
2023-01-29T19:33:33.464Z,18.00
2023-01-29T19:36:01.483Z,16.57
2023-01-29T19:38:29.327Z,17.30
2023-01-29T19:40:59.171Z,17.40
2023-01-29T19:43:33.340Z,18.23
2023-01-29T19:46:02.120Z,16.10
2023-01-29T19:48:29.800Z,17.17
2023-01-29T19:50:58.920Z,18.90
2023-01-29T19:53:28.613Z,19.00
2023-01-29T19:56:03.236Z,20.00
2023-01-29T19:58:31.406Z,22.53
2023-01-29T20:01:04.886Z,27.50
2023-01-29T20:03:32.578Z,22.97
2023-01-29T20:06:04.782Z,22.20
2023-01-29T20:08:33.502Z,23.30
2023-01-29T20:11:01.279Z,28.97
2023-01-29T20:13:28.956Z,27.77
2023-01-29T20:15:56.696Z,23.70
2023-01-29T20:18:24.106Z,23.70
2023-01-29T20:20:53.164Z,23.93
2023-01-29T20:23:36.672Z,25.77
2023-01-29T20:26:07.166Z,24.57
2023-01-29T20:28:35.021Z,24.27
2023-01-29T20:31:03.014Z,33.63
2023-01-29T20:33:30.682Z,48.80
2023-01-29T20:36:00.928Z,45.23
2023-01-29T20:38:30.535Z,32.20
2023-01-29T20:41:25.677Z,25.13
2023-01-29T20:43:52.972Z,24.03
2023-01-29T20:46:20.827Z,22.70
2023-01-29T20:48:49.789Z,20.43
2023-01-29T20:51:17.909Z,21.40
2023-01-29T20:53:46.600Z,21.67
2023-01-29T20:56:15.788Z,21.37
2023-01-29T20:58:43.351Z,20.70
2023-01-29T21:01:19.112Z,22.33
2023-01-29T21:03:48.221Z,22.50
2023-01-29T21:06:16.377Z,22.90
2023-01-29T21:08:43.699Z,24.40
2023-01-29T21:11:11.675Z,23.83
2023-01-29T21:13:39.089Z,24.20
2023-01-29T21:16:06.794Z,21.63
2023-01-29T21:18:34.419Z,22.07
2023-01-29T21:21:01.775Z,24.77
2023-01-29T21:23:29.232Z,25.70
2023-01-29T21:26:04.785Z,29.73
2023-01-29T21:28:33.141Z,28.27
2023-01-29T21:31:10.253Z,28.57
2023-01-29T21:33:37.791Z,22.60
2023-01-29T21:36:05.740Z,24.33
2023-01-29T21:38:33.472Z,24.37
2023-01-29T21:41:06.538Z,25.37
2023-01-29T21:43:33.856Z,23.40
2023-01-29T21:46:05.199Z,24.67
2023-01-29T21:48:32.950Z,25.37
2023-01-29T21:51:00.225Z,25.20
2023-01-29T21:53:28.190Z,26.60
2023-01-29T21:56:03.081Z,25.20
2023-01-29T21:58:31.107Z,26.13
2023-01-29T22:01:22.872Z,26.47
2023-01-29T22:03:47.524Z,24.57
2023-01-29T22:06:15.731Z,25.83
2023-01-29T22:08:43.201Z,23.60
2023-01-29T22:11:11.200Z,20.70
2023-01-29T22:13:38.803Z,20.53
2023-01-29T22:16:06.669Z,19.63
2023-01-29T22:18:34.225Z,19.23
2023-01-29T22:21:02.915Z,21.33
2023-01-29T22:23:31.213Z,21.50
2023-01-29T22:26:06.737Z,22.40
2023-01-29T22:28:34.334Z,22.50
2023-01-29T22:31:03.108Z,23.40
2023-01-29T22:33:32.271Z,23.10
2023-01-29T22:36:00.098Z,23.40
2023-01-29T22:38:27.800Z,24.17
2023-01-29T22:40:56.644Z,24.63
2023-01-29T22:43:26.107Z,23.37
2023-01-29T22:45:53.352Z,25.17
2023-01-29T22:48:22.807Z,24.50
2023-01-29T22:51:11.409Z,24.83
2023-01-29T22:53:51.063Z,25.00
2023-01-29T22:56:20.520Z,24.27
2023-01-29T22:58:53.243Z,25.30
2023-01-29T23:01:27.323Z,23.20
2023-01-29T23:03:55.977Z,22.30
2023-01-29T23:06:23.863Z,24.13
2023-01-29T23:08:51.892Z,23.73
2023-01-29T23:11:21.359Z,23.30
2023-01-29T23:13:54.497Z,22.40
2023-01-29T23:16:26.945Z,23.17
2023-01-29T23:18:56.298Z,22.27
2023-01-29T23:21:25.120Z,23.40
2023-01-29T23:23:54.559Z,22.97
2023-01-29T23:26:40.419Z,23.57
2023-01-29T23:29:07.739Z,23.83
2023-01-29T23:31:35.335Z,22.87
2023-01-29T23:34:02.783Z,23.93
2023-01-29T23:36:30.216Z,25.27
2023-01-29T23:38:57.508Z,23.17
2023-01-29T23:41:25.106Z,22.20
2023-01-29T23:43:53.084Z,22.17
2023-01-29T23:46:20.825Z,22.37
2023-01-29T23:48:48.631Z,22.93
2023-01-29T23:51:16.810Z,23.70
2023-01-29T23:53:44.084Z,21.80
2023-01-29T23:56:11.666Z,23.40
2023-01-29T23:58:39.087Z,24.23
